Time;durP1;ratioP1;P1;durP2;ratioP2;P2;SDS_P1;SDS_P2;PMS_P1;PMS_P2;Temp;Humidity;BMP_temperature;BMP_pressure;BME280_temperature;BME280_humidity;BME280_pressure;Samples;Min_cycle;Max_cycle;Signal;HPM_P1;HPM_P2
2022/06/17 00:02:02;;;;;;;;;11.33;10.67;;;;;26.15;32.32;101908.94;5051304;28;45458;-56
2022/06/17 00:04:27;;;;;;;;;10.33;10.00;;;;;26.11;32.42;101902.06;5060228;28;45280;-56
2022/06/17 00:06:57;;;;;;;;;11.67;10.00;;;;;26.12;33.12;101899.19;5052855;28;66492;-56
2022/06/17 00:09:24;;;;;;;;;10.67;10.67;;;;;26.13;32.61;101897.34;5059973;28;46153;-57
2022/06/17 00:11:49;;;;;;;;;10.67;9.67;;;;;26.14;33.10;101897.19;5059062;28;45303;-57
2022/06/17 00:14:28;;;;;;;;;8.00;7.67;;;;;26.16;32.53;101900.59;5060823;28;66248;-57
2022/06/17 00:16:54;;;;;;;;;11.33;10.00;;;;;26.18;32.67;101894.97;5065283;27;45386;-56
2022/06/17 00:19:19;;;;;;;;;12.67;11.33;;;;;26.19;32.48;101894.84;5061870;28;70180;-57
2022/06/17 00:21:48;;;;;;;;;10.67;10.00;;;;;26.21;32.74;101897.41;5071917;28;45283;-57
2022/06/17 00:24:16;;;;;;;;;12.00;10.67;;;;;26.22;33.20;101889.09;5065840;28;45465;-57
2022/06/17 00:26:42;;;;;;;;;13.00;12.67;;;;;26.24;33.37;101889.81;5061306;28;45382;-57
2022/06/17 00:29:11;;;;;;;;;10.67;10.67;;;;;26.25;32.74;101893.38;5066592;28;46902;-56
2022/06/17 00:31:36;;;;;;;;;10.33;10.33;;;;;26.26;32.77;101897.81;5059548;28;45433;-57
2022/06/17 00:34:02;;;;;;;;;10.00;10.00;;;;;26.25;33.32;101898.81;5060579;28;45498;-57
2022/06/17 00:36:27;;;;;;;;;11.33;11.33;;;;;26.23;33.48;101900.84;5059349;28;68711;-57
2022/06/17 00:38:52;;;;;;;;;13.33;11.67;;;;;26.21;33.55;101902.88;5072348;28;70881;-57
2022/06/17 00:41:26;;;;;;;;;13.00;10.67;;;;;26.19;33.08;101892.13;5061038;28;59211;-56
2022/06/17 00:43:51;;;;;;;;;10.67;10.00;;;;;26.17;33.02;101890.56;5061004;28;45430;-57
2022/06/17 00:46:47;;;;;;;;;15.00;11.67;;;;;26.15;33.56;101892.56;5063482;28;45449;-57
2022/06/17 00:49:17;;;;;;;;;12.00;11.67;;;;;26.13;33.58;101892.72;5069017;28;45446;-57
2022/06/17 00:52:14;;;;;;;;;10.33;10.00;;;;;26.11;32.97;101889.28;5059268;28;45389;-57
2022/06/17 00:54:55;;;;;;;;;13.00;11.33;;;;;26.10;33.51;101901.22;5067729;27;45189;-57
2022/06/17 00:57:27;;;;;;;;;11.00;11.00;;;;;26.09;33.04;101889.44;5073092;27;45408;-56
2022/06/17 01:00:11;;;;;;;;;12.00;12.00;;;;;26.08;33.49;101892.34;5058125;28;45647;-56
2022/06/17 01:02:44;;;;;;;;;11.00;11.00;;;;;26.06;33.47;101899.78;5064920;28;45245;-56
2022/06/17 01:05:10;;;;;;;;;11.00;11.00;;;;;26.05;33.56;101903.56;5062345;28;45472;-55
2022/06/17 01:07:40;;;;;;;;;9.33;9.33;;;;;25.98;33.45;101902.41;5059082;28;45473;-56
2022/06/17 01:10:09;;;;;;;;;10.33;9.00;;;;;25.97;33.74;101903.41;5059327;28;45589;-56
2022/06/17 01:12:45;;;;;;;;;10.67;10.67;;;;;25.94;33.41;101901.84;5058842;28;45521;-56
2022/06/17 01:15:15;;;;;;;;;12.00;12.00;;;;;25.91;33.86;101908.44;5059016;28;45309;-55
2022/06/17 01:17:41;;;;;;;;;10.00;10.00;;;;;25.90;33.19;101914.94;5069246;27;45528;-56
2022/06/17 01:20:09;;;;;;;;;13.33;12.33;;;;;25.87;33.83;101909.75;5058659;28;45346;-56
2022/06/17 01:22:37;;;;;;;;;10.67;10.67;;;;;25.86;33.42;101910.75;5059779;28;45473;-56
2022/06/17 01:25:05;;;;;;;;;12.33;12.33;;;;;25.85;33.97;101909.06;5060586;28;45523;-56
2022/06/17 01:27:37;;;;;;;;;10.33;10.33;;;;;25.84;33.64;101904.63;5067722;27;45465;-56
2022/06/17 01:30:05;;;;;;;;;10.00;10.00;;;;;25.83;33.84;101910.22;5058586;28;45816;-56
2022/06/17 01:32:36;;;;;;;;;9.33;9.33;;;;;25.79;34.09;101914.25;5057767;28;45442;-57
2022/06/17 01:35:01;;;;;;;;;12.33;12.33;;;;;25.75;33.88;101916.44;5058947;28;45307;-57
2022/06/17 01:37:28;;;;;;;;;9.33;9.33;;;;;25.74;33.89;101914.72;5061664;28;45624;-57
2022/06/17 01:39:54;;;;;;;;;12.33;10.67;;;;;25.72;33.88;101906.69;5069124;28;45395;-56
2022/06/17 01:42:19;;;;;;;;;10.00;10.00;;;;;25.69;34.16;101908.84;5058943;28;45786;-57
2022/06/17 01:44:45;;;;;;;;;11.67;10.67;;;;;25.68;34.68;101909.84;5058385;28;64579;-56
2022/06/17 01:47:19;;;;;;;;;10.33;10.33;;;;;25.66;34.71;101915.44;5057487;28;68390;-57
2022/06/17 01:49:49;;;;;;;;;11.33;10.33;;;;;25.65;34.72;101918.34;5057803;28;45363;-56
2022/06/17 01:52:19;;;;;;;;;12.67;12.00;;;;;25.62;34.50;101924.06;5053290;28;45537;-57
2022/06/17 01:54:58;;;;;;;;;10.33;9.33;;;;;25.61;34.70;101933.25;5082090;27;45472;-56
2022/06/17 01:57:31;;;;;;;;;14.67;12.33;;;;;25.57;34.97;101930.81;5071289;27;45253;-56
2022/06/17 02:00:13;;;;;;;;;11.67;9.33;;;;;25.54;34.50;101930.25;5084072;27;45426;-57
2022/06/17 02:02:39;;;;;;;;;11.33;10.00;;;;;25.47;35.03;101932.72;5057761;28;45512;-56
2022/06/17 02:05:07;;;;;;;;;11.67;11.00;;;;;25.39;34.80;101938.03;5056476;28;46470;-56
2022/06/17 02:07:46;;;;;;;;;12.00;11.00;;;;;25.29;35.11;101951.63;5067018;28;45337;-56
2022/06/17 02:10:12;;;;;;;;;13.00;10.67;;;;;25.23;34.85;101953.06;5060199;28;46164;-56
2022/06/17 02:12:38;;;;;;;;;13.00;11.33;;;;;25.18;35.03;101939.03;5049191;28;45371;-54
2022/06/17 02:15:04;;;;;;;;;12.67;10.67;;;;;25.18;35.15;101940.91;5056691;28;45505;-56
2022/06/17 02:17:32;;;;;;;;;11.00;11.00;;;;;25.13;35.57;101946.78;5050403;27;45828;-56
2022/06/17 02:19:58;;;;;;;;;11.00;11.00;;;;;25.10;35.47;101961.53;5061077;28;47096;-55
2022/06/17 02:22:26;;;;;;;;;10.67;10.33;;;;;25.09;35.32;101954.38;5062083;28;71536;-56
2022/06/17 02:24:55;;;;;;;;;13.67;12.00;;;;;25.09;35.51;101956.25;5060148;28;45442;-56
2022/06/17 02:27:21;;;;;;;;;12.67;12.67;;;;;25.08;35.38;101960.84;5063358;28;45507;-56
2022/06/17 02:29:47;;;;;;;;;12.33;11.33;;;;;25.09;35.80;101957.09;5055126;28;46133;-56
2022/06/17 02:32:13;;;;;;;;;11.00;11.00;;;;;25.10;36.08;101958.81;5056734;28;60894;-56
2022/06/17 02:34:56;;;;;;;;;12.00;10.67;;;;;25.09;35.67;101956.25;5061781;28;60082;-56
2022/06/17 02:37:23;;;;;;;;;12.67;10.33;;;;;25.05;35.54;101954.81;5052434;28;46284;-55
2022/06/17 02:39:51;;;;;;;;;11.33;9.33;;;;;25.01;35.89;101956.13;5070812;28;47143;-56
2022/06/17 02:42:19;;;;;;;;;12.00;12.00;;;;;24.98;36.17;101957.25;5057927;28;45512;-56
2022/06/17 02:44:46;;;;;;;;;11.00;11.00;;;;;24.97;36.13;101960.97;5057607;28;45451;-56
2022/06/17 02:47:11;;;;;;;;;10.33;10.33;;;;;24.96;36.14;101963.84;5056462;28;45477;-56
2022/06/17 02:49:39;;;;;;;;;9.00;9.00;;;;;24.97;36.23;101963.72;5056525;28;74699;-56
2022/06/17 02:52:11;;;;;;;;;12.33;11.33;;;;;24.98;36.25;101959.09;5065890;27;69610;-56
2022/06/17 02:54:40;;;;;;;;;13.33;11.33;;;;;24.97;36.47;101960.97;5059620;28;45527;-56
2022/06/17 02:57:08;;;;;;;;;11.00;11.00;;;;;24.95;36.30;101954.81;5057802;28;45343;-56
2022/06/17 02:59:42;;;;;;;;;14.00;12.00;;;;;24.94;36.24;101958.56;5060654;28;45685;-56
2022/06/17 03:02:21;;;;;;;;;12.00;10.67;;;;;24.92;36.42;101957.84;5060595;28;45460;-57
2022/06/17 03:04:46;;;;;;;;;16.67;11.67;;;;;24.89;36.31;101950.81;5051258;28;45331;-56
2022/06/17 03:07:17;;;;;;;;;11.33;8.33;;;;;24.88;36.27;101953.69;5061214;28;45351;-55
2022/06/17 03:09:43;;;;;;;;;13.33;11.00;;;;;24.84;36.54;101953.09;5065982;28;45443;-54
2022/06/17 03:12:18;;;;;;;;;12.67;10.00;;;;;24.81;36.57;101950.69;5062969;27;45608;-55
2022/06/17 03:15:14;;;;;;;;;11.00;11.00;;;;;24.80;36.64;101946.25;5068258;28;45362;-56
2022/06/17 03:17:42;;;;;;;;;14.00;11.00;;;;;24.79;36.49;101932.78;5065657;28;45544;-56
2022/06/17 03:20:12;;;;;;;;;14.00;13.67;;;;;24.78;36.57;101940.06;5063795;28;46361;-56
2022/06/17 03:22:37;;;;;;;;;13.00;11.00;;;;;24.77;36.77;101941.94;5059617;28;45507;-56
2022/06/17 03:25:18;;;;;;;;;13.67;10.00;;;;;24.77;36.89;101933.78;5059489;28;45527;-57
2022/06/17 03:27:48;;;;;;;;;10.00;10.00;;;;;24.75;36.94;101938.50;5066672;28;46749;-56
2022/06/17 03:30:18;;;;;;;;;14.00;12.00;;;;;24.72;36.88;101932.50;5064910;28;46123;-54
2022/06/17 03:32:45;;;;;;;;;10.67;10.67;;;;;24.71;37.13;101928.06;5060854;28;45445;-56
2022/06/17 03:35:17;;;;;;;;;12.33;11.00;;;;;24.69;37.07;101921.88;5066598;28;45553;-56
2022/06/17 03:37:57;;;;;;;;;15.00;11.67;;;;;24.68;37.32;101909.28;5064863;28;45366;-56
2022/06/17 03:40:41;;;;;;;;;13.00;12.33;;;;;24.65;36.89;101898.69;5063169;28;46218;-55
2022/06/17 03:43:09;;;;;;;;;14.33;11.33;;;;;24.56;37.05;101889.50;5065751;28;45300;-56
2022/06/17 03:46:01;;;;;;;;;13.00;11.33;;;;;24.54;37.37;101926.88;5058056;28;45516;-56
2022/06/17 03:48:33;;;;;;;;;12.33;11.33;;;;;24.53;37.32;101942.31;5048824;28;45414;-56
2022/06/17 03:50:59;;;;;;;;;11.67;11.00;;;;;24.54;37.47;101945.91;5059029;28;46373;-56
2022/06/17 03:53:34;;;;;;;;;14.67;14.00;;;;;24.51;37.37;101949.75;5066535;27;49246;-57
2022/06/17 03:56:05;;;;;;;;;10.67;9.67;;;;;24.49;37.13;101956.34;5063494;28;45548;-55
2022/06/17 03:58:32;;;;;;;;;15.00;13.67;;;;;24.47;37.49;101952.88;5055419;28;45481;-56
2022/06/17 04:01:00;;;;;;;;;11.33;10.00;;;;;24.45;37.58;101961.19;5060324;28;45443;-56
2022/06/17 04:03:29;;;;;;;;;13.33;12.33;;;;;24.41;37.72;101962.47;5067065;28;45741;-57
2022/06/17 04:06:00;;;;;;;;;9.67;9.67;;;;;24.40;38.08;101958.03;5060428;28;45433;-55
2022/06/17 04:08:26;;;;;;;;;11.00;10.67;;;;;24.38;38.19;101958.19;5060355;28;45230;-55
2022/06/17 04:10:51;;;;;;;;;12.67;11.00;;;;;24.37;38.21;101961.88;5061164;28;46084;-54
2022/06/17 04:13:18;;;;;;;;;14.33;10.00;;;;;24.36;38.03;101956.59;5053733;28;68458;-57
2022/06/17 04:15:53;;;;;;;;;11.33;11.33;;;;;24.35;38.11;101950.28;5059819;28;45495;-56
2022/06/17 04:18:18;;;;;;;;;12.33;12.33;;;;;24.32;38.18;101947.00;5060033;28;45335;-56
2022/06/17 04:20:48;;;;;;;;;11.67;11.00;;;;;24.30;38.04;101949.88;5064819;28;70599;-55
2022/06/17 04:23:17;;;;;;;;;9.00;9.00;;;;;24.28;38.35;101949.97;5054870;28;45505;-54
2022/06/17 04:25:55;;;;;;;;;13.67;11.33;;;;;24.26;38.37;101946.56;5058005;28;45840;-53
2022/06/17 04:28:27;;;;;;;;;15.00;13.33;;;;;24.22;38.17;101945.13;5056138;28;45553;-56
2022/06/17 04:30:56;;;;;;;;;11.33;11.33;;;;;24.14;38.33;101949.53;5078483;27;45280;-56
2022/06/17 04:33:31;;;;;;;;;13.33;12.67;;;;;24.09;38.71;101944.50;5062116;28;45391;-56
2022/06/17 04:36:01;;;;;;;;;13.67;12.33;;;;;24.08;38.72;101948.22;5060742;28;45511;-56
2022/06/17 04:38:28;;;;;;;;;16.00;12.00;;;;;24.09;38.66;101953.53;5061798;28;45442;-56
2022/06/17 04:40:57;;;;;;;;;14.00;13.33;;;;;24.11;38.70;101956.94;5064649;28;45508;-55
2022/06/17 04:43:30;;;;;;;;;12.00;11.00;;;;;24.12;38.99;101955.09;5060374;28;45528;-55
2022/06/17 04:46:03;;;;;;;;;12.33;12.33;;;;;24.13;38.92;101959.50;5058282;28;45284;-55
2022/06/17 04:48:29;;;;;;;;;13.67;12.33;;;;;24.13;38.82;101954.09;5063239;28;45422;-55
2022/06/17 04:50:54;;;;;;;;;11.00;11.00;;;;;24.15;38.76;101952.09;5065667;27;46253;-55
2022/06/17 04:53:20;;;;;;;;;11.67;11.67;;;;;24.16;38.66;101950.22;5066417;27;45554;-55
2022/06/17 04:55:46;;;;;;;;;12.67;11.33;;;;;24.17;39.02;101951.97;5060717;28;45308;-56
2022/06/17 04:58:14;;;;;;;;;14.67;14.67;;;;;24.17;39.25;101954.69;5058063;28;61874;-56
2022/06/17 05:00:45;;;;;;;;;13.00;13.00;;;;;24.16;39.08;101956.53;5047521;28;45808;-55
2022/06/17 05:03:10;;;;;;;;;12.00;10.67;;;;;24.18;39.56;101956.41;5058714;28;45460;-57
2022/06/17 05:05:38;;;;;;;;;14.33;12.33;;;;;24.19;39.29;101958.13;5059417;28;45417;-55
2022/06/17 05:08:11;;;;;;;;;13.00;11.33;;;;;24.20;39.27;101952.53;5059501;28;45203;-55
2022/06/17 05:10:39;;;;;;;;;12.00;12.00;;;;;24.24;39.41;101951.25;5058541;28;45886;-56
2022/06/17 05:13:10;;;;;;;;;15.33;14.33;;;;;24.24;39.28;101948.53;5062708;27;45270;-56
2022/06/17 05:15:37;;;;;;;;;9.33;8.33;;;;;24.25;39.33;101953.00;5059928;28;45342;-55
2022/06/17 05:18:02;;;;;;;;;11.33;11.33;;;;;24.26;39.31;101949.28;5065921;28;45487;-56
2022/06/17 05:20:27;;;;;;;;;18.00;16.67;;;;;24.26;39.20;101934.81;5068957;27;46301;-55
2022/06/17 05:23:00;;;;;;;;;13.67;13.00;;;;;24.27;39.31;101933.81;5060458;28;45327;-56
2022/06/17 05:25:32;;;;;;;;;14.67;14.67;;;;;24.27;39.74;101929.25;5063680;28;45611;-57
2022/06/17 05:27:57;;;;;;;;;16.33;11.00;;;;;24.28;39.45;101941.81;5066355;28;45347;-55
2022/06/17 05:30:22;;;;;;;;;11.00;11.00;;;;;24.32;39.38;101936.13;5058461;28;71415;-55
2022/06/17 05:32:51;;;;;;;;;15.33;13.67;;;;;24.34;39.57;101934.13;5060064;28;45373;-56
2022/06/17 05:35:17;;;;;;;;;13.33;13.00;;;;;24.34;39.56;101932.28;5048399;28;45520;-56
2022/06/17 05:37:42;;;;;;;;;15.33;15.33;;;;;24.35;39.78;101928.53;5063432;28;45394;-56
2022/06/17 05:40:09;;;;;;;;;16.67;14.00;;;;;24.38;39.46;101927.41;5061564;28;46224;-57
2022/06/17 05:42:35;;;;;;;;;15.33;15.33;;;;;24.39;39.58;101927.28;5052657;28;45305;-56
2022/06/17 05:45:00;;;;;;;;;18.00;15.33;;;;;24.44;39.56;101929.56;5047730;28;45218;-56
2022/06/17 05:47:26;;;;;;;;;14.67;13.33;;;;;24.52;39.51;101929.72;5054464;28;68098;-56
2022/06/17 05:49:51;;;;;;;;;16.33;14.00;;;;;24.66;39.47;101925.75;5047720;27;72385;-56
2022/06/17 05:52:17;;;;;;;;;13.33;13.00;;;;;24.74;39.09;101927.75;5057510;28;45375;-56
2022/06/17 05:54:42;;;;;;;;;15.33;15.33;;;;;24.78;38.84;101934.63;5047758;28;45296;-56
2022/06/17 05:57:08;;;;;;;;;14.33;13.67;;;;;24.80;39.15;101935.34;5050240;28;65020;-54
2022/06/17 05:59:33;;;;;;;;;14.00;14.00;;;;;24.83;38.91;101931.50;5059314;28;45496;-55
2022/06/17 06:01:58;;;;;;;;;16.33;14.00;;;;;24.85;39.00;101934.91;5056535;28;53447;-55
2022/06/17 06:04:26;;;;;;;;;26.00;20.67;;;;;24.86;39.14;101934.78;5053597;28;45386;-55
2022/06/17 06:06:51;;;;;;;;;16.67;15.00;;;;;24.90;39.22;101941.66;5049730;28;45605;-55
2022/06/17 06:09:16;;;;;;;;;16.67;16.00;;;;;24.93;39.20;101935.06;5070231;28;45421;-55
2022/06/17 06:11:42;;;;;;;;;14.00;14.00;;;;;24.94;38.84;101926.75;5053390;28;71463;-55
2022/06/17 06:14:07;;;;;;;;;17.67;17.67;;;;;25.00;38.82;101925.31;5058433;28;68651;-55
2022/06/17 06:16:34;;;;;;;;;17.33;14.33;;;;;25.04;38.90;101925.88;5057639;28;62497;-56
2022/06/17 06:18:59;;;;;;;;;14.67;11.67;;;;;25.08;38.71;101910.97;5059433;28;48571;-56
2022/06/17 06:21:25;;;;;;;;;11.00;11.00;;;;;25.13;38.31;101918.72;5064822;27;69421;-55
2022/06/17 06:23:50;;;;;;;;;9.00;8.00;;;;;25.17;37.83;101912.81;5067811;27;45354;-55
2022/06/17 06:26:18;;;;;;;;;11.33;8.67;;;;;25.23;37.70;101900.50;5048605;28;45561;-56
2022/06/17 06:28:44;;;;;;;;;9.33;9.33;;;;;25.26;37.24;101895.59;5053927;28;46295;-54
2022/06/17 06:31:27;;;;;;;;;11.67;10.00;;;;;25.32;37.11;101901.47;5055226;28;45793;-55
2022/06/17 06:33:53;;;;;;;;;8.67;8.67;;;;;25.40;37.41;101899.75;5060004;28;45405;-56
2022/06/17 06:36:18;;;;;;;;;12.33;11.33;;;;;25.51;37.61;101895.16;5051789;28;45233;-57
2022/06/17 06:38:43;;;;;;;;;9.00;8.33;;;;;25.64;37.26;101898.38;5059040;28;56901;-55
2022/06/17 06:41:09;;;;;;;;;5.33;5.33;;;;;25.78;36.64;101899.78;5063083;27;71611;-58
2022/06/17 06:43:34;;;;;;;;;8.67;8.33;;;;;25.94;36.52;101907.28;5058341;28;45694;-56
2022/06/17 06:46:06;;;;;;;;;9.67;8.00;;;;;26.08;35.75;101905.97;5055993;28;45576;-53
2022/06/17 06:48:31;;;;;;;;;8.00;8.00;;;;;26.19;35.63;101913.06;5050877;28;46305;-55
2022/06/17 06:50:57;;;;;;;;;9.67;9.67;;;;;26.31;35.63;101898.22;5051826;28;45594;-56
2022/06/17 06:53:22;;;;;;;;;9.67;9.67;;;;;26.44;35.41;101903.28;5049339;28;45404;-56
2022/06/17 06:55:48;;;;;;;;;10.33;10.33;;;;;26.60;35.52;101904.47;5057884;28;66952;-56
2022/06/17 06:58:19;;;;;;;;;12.67;9.67;;;;;26.77;35.06;101909.09;5052732;28;46190;-54
2022/06/17 07:00:47;;;;;;;;;9.67;8.67;;;;;26.92;34.29;101912.09;5054817;28;45734;-56
2022/06/17 07:03:13;;;;;;;;;9.00;9.00;;;;;27.08;34.37;101923.16;5049537;28;45243;-57
2022/06/17 07:05:41;;;;;;;;;8.00;8.00;;;;;27.19;32.76;101916.56;5055559;28;45464;-56
2022/06/17 07:08:11;;;;;;;;;10.67;9.00;;;;;27.27;34.08;101923.13;5054307;28;45373;-57
2022/06/17 07:10:36;;;;;;;;;10.33;9.33;;;;;27.44;33.67;101921.38;5058480;28;45294;-57
2022/06/17 07:13:02;;;;;;;;;11.00;9.33;;;;;27.60;33.39;101917.88;5054416;28;45391;-56
2022/06/17 07:15:29;;;;;;;;;9.33;8.00;;;;;27.73;32.14;101919.16;5057922;28;45425;-57
2022/06/17 07:17:55;;;;;;;;;10.33;10.33;;;;;27.87;33.23;101928.63;5051905;28;46317;-58
2022/06/17 07:20:21;;;;;;;;;9.33;9.00;;;;;28.04;32.59;101926.84;5053519;28;45295;-57
2022/06/17 07:22:46;;;;;;;;;9.00;9.00;;;;;28.17;31.80;101917.31;5056506;28;45332;-58
2022/06/17 07:25:12;;;;;;;;;11.00;10.33;;;;;28.31;31.46;101915.81;5053517;28;45453;-57
2022/06/17 07:27:37;;;;;;;;;7.00;7.00;;;;;28.44;31.91;101916.16;5052028;28;46346;-57
2022/06/17 07:30:03;;;;;;;;;11.00;9.00;;;;;28.62;31.86;101923.41;5049680;28;45463;-57
2022/06/17 07:32:28;;;;;;;;;17.00;8.67;;;;;28.75;31.34;101921.03;5053837;28;45497;-57
2022/06/17 07:34:54;;;;;;;;;10.33;9.67;;;;;28.95;31.14;101926.16;5051364;28;45308;-57
2022/06/17 07:40:04;;;;;;;;;10.33;8.33;;;;;29.61;30.90;101935.19;5055998;28;45359;-57
2022/06/17 07:42:37;;;;;;;;;8.33;8.00;;;;;29.96;30.62;101946.75;5054389;28;45228;-57
2022/06/17 07:45:16;;;;;;;;;10.00;10.00;;;;;30.36;29.10;101941.22;5043551;28;45319;-57
2022/06/17 07:47:43;;;;;;;;;10.67;8.33;;;;;30.71;28.28;101954.56;5061451;28;45658;-57
2022/06/17 07:50:13;;;;;;;;;10.33;9.00;;;;;31.03;28.85;101953.47;5061494;28;45268;-58
2022/06/17 07:52:39;;;;;;;;;9.67;8.00;;;;;31.41;28.06;101969.94;5061354;28;45323;-57
2022/06/17 07:55:06;;;;;;;;;9.00;9.00;;;;;31.80;27.67;101971.63;5054371;28;45573;-57
2022/06/17 07:57:31;;;;;;;;;9.67;9.67;;;;;32.16;26.75;101975.47;5053665;28;45315;-58
2022/06/17 07:59:56;;;;;;;;;10.33;9.00;;;;;32.50;25.59;101982.25;5053370;28;45274;-57
2022/06/17 08:02:22;;;;;;;;;8.67;7.33;;;;;32.82;26.45;101969.91;5061059;28;45291;-57
2022/06/17 08:04:47;;;;;;;;;8.00;8.00;;;;;33.27;25.95;101974.34;5049280;28;61131;-57
2022/06/17 08:07:13;;;;;;;;;8.67;8.33;;;;;33.73;24.32;101971.06;5055556;28;45927;-57
2022/06/17 08:09:38;;;;;;;;;10.33;7.00;;;;;34.08;25.13;101984.00;5056984;28;45157;-56
2022/06/17 08:12:08;;;;;;;;;8.00;7.67;;;;;34.43;24.25;101976.53;5051622;28;45429;-58
2022/06/17 08:14:35;;;;;;;;;9.33;9.33;;;;;34.93;23.79;101981.75;5060687;28;45406;-58
2022/06/17 08:17:01;;;;;;;;;11.67;11.00;;;;;35.42;23.43;101982.41;5052826;28;46103;-58
2022/06/17 08:19:26;;;;;;;;;8.00;8.00;;;;;35.83;23.37;101990.59;5047264;28;45438;-58
2022/06/17 08:21:52;;;;;;;;;7.67;7.67;;;;;36.07;22.31;101987.13;5048782;28;66198;-58
2022/06/17 08:24:17;;;;;;;;;7.00;7.00;;;;;36.35;22.17;101968.50;5045560;28;67943;-57
2022/06/17 08:26:42;;;;;;;;;8.33;8.33;;;;;36.67;21.57;101972.16;5057740;28;54914;-58
2022/06/17 08:29:08;;;;;;;;;9.33;8.00;;;;;36.98;21.17;101964.09;5051860;28;45414;-58
2022/06/17 08:31:33;;;;;;;;;8.00;6.33;;;;;37.47;21.08;101967.03;5060342;28;45319;-58
2022/06/17 08:33:58;;;;;;;;;7.00;7.00;;;;;37.99;21.13;101975.03;5045446;28;55504;-58
2022/06/17 08:36:26;;;;;;;;;6.00;6.00;;;;;38.33;20.13;101975.44;5046130;28;69909;-58
2022/06/17 08:38:59;;;;;;;;;6.67;6.67;;;;;38.63;18.03;101969.91;5045233;28;45376;-58
2022/06/17 08:41:26;;;;;;;;;7.00;6.67;;;;;38.75;19.53;101963.53;5058437;28;45460;-59
2022/06/17 08:44:00;;;;;;;;;5.33;4.33;;;;;39.01;19.43;101951.16;5053308;28;45316;-59
2022/06/17 08:46:34;;;;;;;;;7.33;7.33;;;;;39.33;19.06;101957.19;5052209;28;46374;-59
2022/06/17 08:49:21;;;;;;;;;6.67;6.00;;;;;39.69;18.25;101949.69;5060444;28;45666;-57
2022/06/17 08:52:02;;;;;;;;;7.67;7.67;;;;;40.16;17.91;101948.72;5060290;28;45885;-58
2022/06/17 08:54:49;;;;;;;;;7.00;7.00;;;;;40.25;17.80;101948.31;5060128;28;45340;-58
2022/06/17 08:57:32;;;;;;;;;6.00;6.00;;;;;40.47;18.00;101948.44;5036029;28;46184;-58
2022/06/17 09:00:15;;;;;;;;;9.00;7.00;;;;;40.72;15.97;101950.88;5047482;28;45338;-58
2022/06/17 09:02:59;;;;;;;;;8.33;6.67;;;;;40.50;15.08;101962.72;5052294;28;45170;-57
2022/06/17 09:05:40;;;;;;;;;7.00;7.00;;;;;40.36;16.94;101950.19;5054188;28;45312;-58
2022/06/17 09:08:32;;;;;;;;;7.00;7.00;;;;;40.61;16.59;101947.06;5051911;28;45379;-58
2022/06/17 09:11:04;;;;;;;;;6.33;6.33;;;;;40.87;16.69;101943.84;5058164;28;45417;-58
2022/06/17 09:13:58;;;;;;;;;5.00;4.00;;;;;41.34;16.48;101944.34;5047409;28;45334;-58
2022/06/17 09:17:04;;;;;;;;;8.00;8.00;;;;;41.71;14.77;101944.81;5051035;28;45351;-58
2022/06/17 09:19:37;;;;;;;;;6.67;6.67;;;;;41.81;15.68;101944.94;5058118;28;45746;-58
2022/06/17 09:22:18;;;;;;;;;7.67;6.33;;;;;42.04;15.78;101943.03;5059807;28;45349;-57
2022/06/17 09:24:44;;;;;;;;;5.00;5.00;;;;;42.40;15.61;101938.69;5053857;28;45456;-57
2022/06/17 09:27:20;;;;;;;;;5.00;5.00;;;;;42.78;14.50;101927.56;5050622;28;45838;-59
2022/06/17 09:29:49;;;;;;;;;5.00;4.67;;;;;43.08;14.60;101923.31;5050898;28;45415;-59
2022/06/17 09:32:20;;;;;;;;;7.00;7.00;;;;;43.25;13.53;101926.78;5049065;28;45380;-59
2022/06/17 09:34:55;;;;;;;;;7.00;7.00;;;;;43.35;14.54;101933.56;5058611;28;45358;-57
2022/06/17 09:37:20;;;;;;;;;6.33;6.33;;;;;43.59;14.39;101937.63;5049984;28;45465;-58
2022/06/17 09:39:51;;;;;;;;;5.67;5.67;;;;;43.91;13.82;101928.25;5050428;28;45411;-58
2022/06/17 09:42:21;;;;;;;;;7.33;7.33;;;;;44.18;12.71;101934.75;5074724;27;45451;-58
2022/06/17 09:45:11;;;;;;;;;7.00;7.00;;;;;44.05;13.32;101942.56;5050673;28;45367;-58
2022/06/17 09:47:42;;;;;;;;;5.67;5.67;;;;;43.73;12.99;101929.56;5059472;28;45254;-58
2022/06/17 09:50:26;;;;;;;;;5.33;5.33;;;;;43.83;13.42;101934.34;5055586;28;45470;-58
2022/06/17 09:52:56;;;;;;;;;7.67;6.00;;;;;44.03;12.96;101935.53;5058543;28;45349;-58
2022/06/17 09:55:44;;;;;;;;;7.67;7.00;;;;;44.30;13.09;101934.47;5052433;28;45243;-59
2022/06/17 09:58:16;;;;;;;;;5.00;5.00;;;;;44.72;13.44;101928.66;5055695;28;45880;-59
2022/06/17 10:00:45;;;;;;;;;14.33;13.67;;;;;44.86;11.23;101926.09;5059244;28;45300;-59
2022/06/17 10:03:26;;;;;;;;;15.67;15.67;;;;;44.76;11.15;101932.59;5030331;28;46462;-59
2022/06/17 10:06:13;;;;;;;;;7.00;7.00;;;;;44.25;12.50;101930.56;5058539;28;45447;-59
2022/06/17 10:08:54;;;;;;;;;7.67;7.67;;;;;44.20;12.85;101930.53;5047282;28;45532;-59
2022/06/17 10:11:47;;;;;;;;;16.67;15.00;;;;;44.50;12.66;101930.88;5054515;28;45406;-60
2022/06/17 10:14:28;;;;;;;;;20.67;19.33;;;;;44.79;13.19;101933.97;5051777;28;45359;-58
2022/06/17 10:20:18;;;;;;;;;13.67;13.67;;;;;44.85;12.46;101923.59;5058166;28;45331;-58
2022/06/17 10:23:17;;;;;;;;;9.00;9.00;;;;;44.60;12.63;101922.47;5052911;28;47173;-58
2022/06/17 10:26:21;;;;;;;;;10.00;9.33;;;;;44.07;12.19;101926.31;5056058;28;45334;-58
2022/06/17 10:29:05;;;;;;;;;16.67;16.00;;;;;43.87;12.86;101917.84;5048371;28;45466;-58
2022/06/17 10:31:37;;;;;;;;;8.00;7.00;;;;;43.38;12.07;101917.06;5047034;28;45410;-58
2022/06/17 10:34:11;;;;;;;;;4.00;4.00;;;;;43.36;13.09;101922.06;5051546;28;47009;-57
2022/06/17 10:36:37;;;;;;;;;6.33;6.33;;;;;43.57;13.01;101925.88;5055277;28;45372;-58
2022/06/17 10:39:02;;;;;;;;;6.33;6.33;;;;;43.74;12.37;101919.19;5057427;28;45274;-58
2022/06/17 10:41:30;;;;;;;;;9.00;9.00;;;;;43.65;12.23;101930.06;5057390;28;45429;-59
2022/06/17 10:43:55;;;;;;;;;4.67;4.67;;;;;43.30;12.50;101932.41;5045684;28;54163;-59
2022/06/17 10:46:23;;;;;;;;;4.67;4.67;;;;;43.13;12.15;101931.78;5056635;28;45419;-58
2022/06/17 10:48:54;;;;;;;;;9.00;9.00;;;;;43.05;12.74;101923.81;5057857;28;45417;-58
2022/06/17 10:51:20;;;;;;;;;9.33;9.33;;;;;43.23;12.57;101917.81;5057013;28;45476;-58
2022/06/17 10:53:48;;;;;;;;;12.00;12.00;;;;;43.34;12.87;101924.31;5050068;28;65358;-58
2022/06/17 10:56:48;;;;;;;;;34.33;29.67;;;;;43.33;12.21;101925.44;5056906;28;45377;-58
2022/06/17 10:59:13;;;;;;;;;12.00;11.00;;;;;43.04;12.91;101923.00;5045796;28;45386;-58
2022/06/17 11:01:45;;;;;;;;;4.33;3.00;;;;;43.18;13.20;101916.94;5045998;28;45481;-59
2022/06/17 11:04:15;;;;;;;;;10.33;8.33;;;;;43.39;12.38;101929.09;5053048;28;46364;-58
2022/06/17 11:07:14;;;;;;;;;10.00;8.67;;;;;43.44;12.40;101924.38;5061114;28;45418;-58
2022/06/17 11:09:46;;;;;;;;;9.00;9.00;;;;;43.20;13.08;101917.53;5060805;28;45440;-58
2022/06/17 11:12:16;;;;;;;;;9.00;7.33;;;;;43.20;12.87;101914.72;5060405;28;45481;-58
2022/06/17 11:14:51;;;;;;;;;10.00;9.00;;;;;42.95;13.12;101908.66;5060687;28;46357;-58
2022/06/17 11:17:35;;;;;;;;;6.33;6.33;;;;;42.88;13.36;101916.47;5061703;28;45303;-58
2022/06/17 11:20:05;;;;;;;;;14.00;14.00;;;;;42.85;13.70;101918.97;5050437;28;45235;-57
2022/06/17 11:22:39;;;;;;;;;8.00;6.33;;;;;42.72;13.32;101909.91;5061231;28;45331;-58
2022/06/17 11:25:35;;;;;;;;;8.00;7.00;;;;;42.32;13.52;101911.19;5060907;28;45355;-58
2022/06/17 11:28:24;;;;;;;;;7.67;7.67;;;;;42.01;14.01;101910.03;5048792;28;45721;-58
2022/06/17 11:30:52;;;;;;;;;22.67;21.67;;;;;41.77;13.85;101910.28;5053735;28;45513;-58
2022/06/17 11:33:32;;;;;;;;;15.00;15.00;;;;;41.56;13.92;101904.44;5052883;28;45304;-58
2022/06/17 11:36:24;;;;;;;;;11.00;10.67;;;;;41.08;14.10;101898.50;5052870;28;45521;-58
2022/06/17 11:38:50;;;;;;;;;7.00;7.00;;;;;40.61;14.16;101905.25;5054875;28;45473;-58